Time;durP1;ratioP1;P1;durP2;ratioP2;P2;SDS_P1;SDS_P2;PMS_P1;PMS_P2;Temp;Humidity;BMP_temperature;BMP_pressure;BME280_temperature;BME280_humidity;BME280_pressure;Samples;Min_cycle;Max_cycle;Signal;HPM_P1;HPM_P2
2021/10/18 00:00:49;;;;;;;;;;;;;;;20.94;65.39;101612.84;7287871;19;152625;-54
2021/10/18 00:03:16;;;;;;;;;;;;;;;20.94;65.38;101610.03;7284018;19;153459;-54
2021/10/18 00:05:44;;;;;;;;;;;;;;;20.94;65.22;101615.66;7287714;19;152134;-54
2021/10/18 00:08:11;;;;;;;;;;;;;;;20.95;65.01;101610.88;7285358;19;152648;-54
2021/10/18 00:10:38;;;;;;;;;;;;;;;20.93;65.39;101608.38;7293907;19;153774;-54
2021/10/18 00:13:25;;;;;;;;;;;;;;;20.92;65.21;101601.09;7287224;19;152004;-54
2021/10/18 00:15:52;;;;;;;;;;;;;;;20.92;65.31;101605.88;7284779;19;153246;-55
2021/10/18 00:18:19;;;;;;;;;;;;;;;20.91;65.59;101609.81;7286983;19;152041;-54
2021/10/18 00:20:46;;;;;;;;;;;;;;;20.90;65.56;101605.31;7284859;19;152612;-55
2021/10/18 00:23:13;;;;;;;;;;;;;;;20.89;65.61;101603.66;7283401;19;154457;-54
2021/10/18 00:25:40;;;;;;;;;;;;;;;20.88;65.54;101596.34;7285188;19;151576;-55
2021/10/18 00:28:07;;;;;;;;;;;;;;;20.88;65.90;101599.16;7281948;19;152231;-55
2021/10/18 00:30:34;;;;;;;;;;;;;;;20.88;65.76;101601.97;7284799;19;154190;-54
2021/10/18 00:33:01;;;;;;;;;;;;;;;20.88;66.04;101593.53;7295193;19;151841;-54
2021/10/18 00:35:28;;;;;;;;;;;;;;;20.88;65.58;101596.34;7286742;19;153206;-54
2021/10/18 00:37:55;;;;;;;;;;;;;;;20.85;65.94;101595.78;7285225;19;151929;-54
2021/10/18 00:40:22;;;;;;;;;;;;;;;20.85;65.93;101595.78;7287239;19;152824;-54
2021/10/18 00:42:51;;;;;;;;;;;;;;;20.84;66.27;101588.53;7283836;19;153591;-54
2021/10/18 00:45:18;;;;;;;;;;;;;;;20.83;65.92;101592.47;7286220;19;153776;-54
2021/10/18 00:47:45;;;;;;;;;;;;;;;20.82;66.18;101590.78;7284883;19;152967;-54
2021/10/18 00:50:13;;;;;;;;;;;;;;;20.83;65.96;101595.28;7283951;19;153942;-54
2021/10/18 00:52:40;;;;;;;;;;;;;;;20.82;65.92;101592.75;7285331;19;152201;-55
2021/10/18 00:55:08;;;;;;;;;;;;;;;20.82;66.31;101598.38;7290631;19;153291;-54
2021/10/18 00:57:36;;;;;;;;;;;;;;;20.81;66.02;101594.72;7285359;19;152555;-54
2021/10/18 01:00:04;;;;;;;;;;;;;;;20.80;66.38;101590.22;7286563;19;152709;-54
2021/10/18 01:02:31;;;;;;;;;;;;;;;20.82;66.36;101584.31;7283074;19;154153;-54
2021/10/18 01:04:59;;;;;;;;;;;;;;;20.80;66.31;101595.03;7286260;19;151781;-54
2021/10/18 01:07:26;;;;;;;;;;;;;;;20.79;66.35;101591.38;7286243;19;152949;-54
2021/10/18 01:09:53;;;;;;;;;;;;;;;20.79;66.56;101591.38;7285177;19;153231;-54
2021/10/18 01:12:20;;;;;;;;;;;;;;;20.79;66.62;101598.97;7285901;19;151757;-54
2021/10/18 01:14:47;;;;;;;;;;;;;;;20.77;66.46;101593.63;7285762;19;153309;-54
2021/10/18 01:17:14;;;;;;;;;;;;;;;20.77;66.55;101590.81;7292737;19;154139;-54
2021/10/18 01:19:41;;;;;;;;;;;;;;;20.77;66.48;101584.38;7283941;19;152985;-54
2021/10/18 01:22:08;;;;;;;;;;;;;;;20.76;66.56;101591.94;7283440;19;153212;-55
2021/10/18 01:24:35;;;;;;;;;;;;;;;20.76;66.51;101591.09;7285566;19;152325;-54
2021/10/18 01:27:03;;;;;;;;;;;;;;;20.75;66.88;101590.28;7280365;19;152609;-54
2021/10/18 01:29:32;;;;;;;;;;;;;;;20.74;66.62;101591.41;7279538;19;153351;-54
2021/10/18 01:31:59;;;;;;;;;;;;;;;20.74;66.70;101588.63;7283477;19;151727;-54
2021/10/18 01:34:27;;;;;;;;;;;;;;;20.74;66.95;101591.41;7283773;19;153402;-55
2021/10/18 01:36:57;;;;;;;;;;;;;;;20.74;67.08;101588.63;7283087;19;153743;-54
2021/10/18 01:39:25;;;;;;;;;;;;;;;20.74;66.70;101593.38;7293328;19;151663;-54
2021/10/18 01:41:52;;;;;;;;;;;;;;;20.73;67.11;101594.50;7282798;19;153892;-54
2021/10/18 01:44:20;;;;;;;;;;;;;;;20.72;67.12;101587.22;7283515;19;151710;-54
2021/10/18 01:46:47;;;;;;;;;;;;;;;20.71;66.81;101586.41;7283813;19;153608;-54
2021/10/18 01:49:14;;;;;;;;;;;;;;;20.72;67.17;101590.03;7283546;19;154046;-54
2021/10/18 01:51:41;;;;;;;;;;;;;;;20.70;67.07;101589.50;7285851;19;151472;-54
2021/10/18 01:54:08;;;;;;;;;;;;;;;20.70;66.78;101586.69;7284390;19;153505;-54
2021/10/18 01:56:35;;;;;;;;;;;;;;;20.69;67.13;101582.19;7283839;19;153931;-55
2021/10/18 01:59:03;;;;;;;;;;;;;;;20.67;66.90;101585.28;7292396;19;151686;-54
2021/10/18 02:01:30;;;;;;;;;;;;;;;20.66;66.91;101566.78;7283022;19;153321;-55
2021/10/18 02:03:57;;;;;;;;;;;;;;;20.67;67.31;101574.06;7280022;19;152443;-54
2021/10/18 02:06:24;;;;;;;;;;;;;;;20.67;67.36;101582.47;7284165;19;153162;-54
2021/10/18 02:08:51;;;;;;;;;;;;;;;20.65;67.41;101578.31;7280470;19;153765;-54
2021/10/18 02:11:18;;;;;;;;;;;;;;;20.65;67.40;101578.31;7284472;19;151703;-54
2021/10/18 02:13:45;;;;;;;;;;;;;;;20.65;67.42;101576.34;7283947;19;153390;-55
2021/10/18 02:16:12;;;;;;;;;;;;;;;20.64;67.42;101568.19;7282860;19;152272;-55
2021/10/18 02:18:39;;;;;;;;;;;;;;;20.64;67.36;101573.81;7283865;19;152496;-54
2021/10/18 02:21:06;;;;;;;;;;;;;;;20.63;67.39;101570.16;7290734;19;152677;-55
2021/10/18 02:23:33;;;;;;;;;;;;;;;20.64;67.30;101568.19;7279802;19;151926;-54
2021/10/18 02:26:00;;;;;;;;;;;;;;;20.62;67.26;101559.25;7283807;19;153386;-54
2021/10/18 02:28:27;;;;;;;;;;;;;;;20.62;67.01;101564.88;7278832;19;154108;-54
2021/10/18 02:30:54;;;;;;;;;;;;;;;20.61;67.27;101564.03;7278301;19;152271;-54
2021/10/18 02:33:21;;;;;;;;;;;;;;;20.60;67.44;101562.34;7282394;19;152260;-54
2021/10/18 02:35:48;;;;;;;;;;;;;;;20.59;67.31;101560.66;7280863;19;153505;-54
2021/10/18 02:38:15;;;;;;;;;;;;;;;20.60;67.55;101556.72;7283753;19;152033;-54
2021/10/18 02:40:42;;;;;;;;;;;;;;;20.58;67.42;101556.16;7281500;19;153855;-54
2021/10/18 02:43:09;;;;;;;;;;;;;;;20.57;67.10;101557.31;7288544;19;153283;-54
2021/10/18 02:45:36;;;;;;;;;;;;;;;20.57;67.23;101551.72;7290830;19;152063;-54
2021/10/18 02:48:03;;;;;;;;;;;;;;;20.57;67.12;101545.25;7285886;19;153808;-54
2021/10/18 02:50:31;;;;;;;;;;;;;;;20.56;67.51;101550.03;7287788;19;152146;-55
2021/10/18 02:52:57;;;;;;;;;;;;;;;20.55;67.19;101548.34;7287318;19;153493;-55
2021/10/18 02:55:24;;;;;;;;;;;;;;;20.55;67.33;101545.53;7289358;19;153868;-54
2021/10/18 02:57:51;;;;;;;;;;;;;;;20.55;67.29;101545.53;7289495;19;151694;-54
2021/10/18 03:00:18;;;;;;;;;;;;;;;20.54;67.67;101541.03;7289876;19;154465;-54
2021/10/18 03:02:45;;;;;;;;;;;;;;;20.53;67.89;101533.78;7286245;19;154136;-54
2021/10/18 03:05:12;;;;;;;;;;;;;;;20.51;67.57;101533.22;7295297;19;151803;-54
2021/10/18 03:07:39;;;;;;;;;;;;;;;20.51;67.84;101530.41;7288426;19;154000;-54
2021/10/18 03:10:06;;;;;;;;;;;;;;;20.51;67.71;101533.22;7289618;19;152279;-54
2021/10/18 03:12:34;;;;;;;;;;;;;;;20.50;67.62;101534.34;7289987;19;152843;-54
2021/10/18 03:15:02;;;;;;;;;;;;;;;20.51;67.91;101540.81;7286566;19;153922;-55
2021/10/18 03:17:29;;;;;;;;;;;;;;;20.51;68.02;101538.00;7287436;19;151675;-54
2021/10/18 03:19:56;;;;;;;;;;;;;;;20.49;67.74;101540.28;7288769;19;153553;-54
2021/10/18 03:22:23;;;;;;;;;;;;;;;20.49;67.94;101552.31;7285370;19;152910;-54
2021/10/18 03:24:50;;;;;;;;;;;;;;;20.48;68.06;101550.66;7288266;19;151610;-54
2021/10/18 03:27:17;;;;;;;;;;;;;;;20.47;68.08;101546.16;7295825;19;153302;-54
2021/10/18 03:29:44;;;;;;;;;;;;;;;20.48;68.06;101555.44;7283907;19;151846;-54
2021/10/18 03:32:11;;;;;;;;;;;;;;;20.46;68.03;101550.09;7285356;19;153549;-54
2021/10/18 03:34:38;;;;;;;;;;;;;;;20.47;67.95;101559.38;7287661;19;153335;-55
2021/10/18 03:37:05;;;;;;;;;;;;;;;20.47;67.88;101553.75;7289535;19;151670;-54
2021/10/18 03:39:32;;;;;;;;;;;;;;;20.46;68.27;101550.09;7286968;19;152619;-54
2021/10/18 03:41:59;;;;;;;;;;;;;;;20.46;68.01;101555.72;7286676;19;153971;-54
2021/10/18 03:44:26;;;;;;;;;;;;;;;20.46;68.54;101546.44;7283025;19;151955;-54
2021/10/18 03:46:53;;;;;;;;;;;;;;;20.45;68.19;101545.63;7288474;19;152687;-54
2021/10/18 03:49:20;;;;;;;;;;;;;;;20.42;68.61;101541.44;7294412;19;153382;-54
2021/10/18 03:51:47;;;;;;;;;;;;;;;20.44;68.19;101545.94;7288549;19;153292;-54
2021/10/18 03:54:14;;;;;;;;;;;;;;;20.42;68.61;101549.00;7287442;19;153188;-54
2021/10/18 03:56:41;;;;;;;;;;;;;;;20.42;68.49;101547.06;7287182;19;151703;-54
2021/10/18 03:59:08;;;;;;;;;;;;;;;20.42;68.23;101551.81;7286126;19;153402;-54
2021/10/18 04:01:35;;;;;;;;;;;;;;;20.42;68.65;101551.81;7287552;19;153336;-54
2021/10/18 04:04:02;;;;;;;;;;;;;;;20.41;68.65;101552.94;7284793;19;152401;-54
2021/10/18 04:06:29;;;;;;;;;;;;;;;20.40;68.35;101556.88;7285724;19;152591;-54
2021/10/18 04:08:56;;;;;;;;;;;;;;;20.40;68.80;101548.47;7294520;19;153777;-54
2021/10/18 04:11:27;;;;;;;;;;;;;;;20.40;68.25;101549.31;7286248;19;151711;-54
2021/10/18 04:13:54;;;;;;;;;;;;;;;20.40;68.37;101554.91;7286115;19;152409;-55
2021/10/18 04:16:21;;;;;;;;;;;;;;;20.38;68.61;101551.59;7287999;19;151717;-54
2021/10/18 04:18:48;;;;;;;;;;;;;;;20.39;68.69;101549.63;7285866;19;152104;-55
2021/10/18 04:21:15;;;;;;;;;;;;;;;20.37;68.85;101552.69;7286678;19;153275;-54
2021/10/18 04:23:41;;;;;;;;;;;;;;;20.36;69.22;101551.03;7284607;19;152288;-55
2021/10/18 04:26:08;;;;;;;;;;;;;;;20.37;69.03;101557.47;7288015;19;152954;-54
2021/10/18 04:28:35;;;;;;;;;;;;;;;20.37;69.36;101560.28;7286462;19;154065;-54
2021/10/18 04:31:02;;;;;;;;;;;;;;;20.36;68.96;101558.59;7290716;19;152264;-54
2021/10/18 04:33:29;;;;;;;;;;;;;;;20.35;69.24;101548.53;7285967;19;153811;-54
2021/10/18 04:35:56;;;;;;;;;;;;;;;20.35;69.33;101557.75;7287633;19;152115;-54
2021/10/18 04:38:23;;;;;;;;;;;;;;;20.34;69.47;101561.72;7286847;19;152629;-54
2021/10/18 04:40:50;;;;;;;;;;;;;;;20.34;69.18;101572.09;7285512;19;153420;-54
2021/10/18 04:43:17;;;;;;;;;;;;;;;20.35;69.05;101566.19;7285157;19;152586;-54
2021/10/18 04:45:45;;;;;;;;;;;;;;;20.35;68.85;101568.16;7287849;19;152992;-55
2021/10/18 04:48:12;;;;;;;;;;;;;;;20.33;69.34;101567.63;7285075;19;153589;-54
2021/10/18 04:50:39;;;;;;;;;;;;;;;20.32;68.83;101565.94;7287606;19;151747;-55
2021/10/18 04:53:06;;;;;;;;;;;;;;;20.32;69.27;101557.50;7292154;19;153163;-55
2021/10/18 04:55:33;;;;;;;;;;;;;;;20.32;69.10;101558.34;7286838;19;151622;-55
2021/10/18 04:58:01;;;;;;;;;;;;;;;20.32;69.22;101566.78;7286205;19;152027;-55
2021/10/18 05:00:30;;;;;;;;;;;;;;;20.32;69.16;101563.97;7283116;19;153490;-55
2021/10/18 05:02:56;;;;;;;;;;;;;;;20.33;68.90;101564.81;7284284;19;151917;-54
2021/10/18 05:05:24;;;;;;;;;;;;;;;20.35;69.17;101559.75;7284700;19;152885;-54
2021/10/18 05:07:54;;;;;;;;;;;;;;;20.40;69.74;101559.69;7281679;19;153943;-54
2021/10/18 05:10:21;;;;;;;;;;;;;;;20.45;69.73;101556.00;7286044;19;152152;-54
2021/10/18 05:12:48;;;;;;;;;;;;;;;20.49;70.32;101569.16;7286142;19;152781;-54
2021/10/18 05:15:15;;;;;;;;;;;;;;;20.52;70.50;101567.75;7291831;19;153751;-54
2021/10/18 05:17:42;;;;;;;;;;;;;;;20.57;70.80;101564.91;7286848;19;152681;-54
2021/10/18 05:20:09;;;;;;;;;;;;;;;20.60;71.00;101556.72;7283290;19;153500;-54
2021/10/18 05:22:36;;;;;;;;;;;;;;;20.66;71.64;101551.91;7285763;19;152155;-54
2021/10/18 05:25:03;;;;;;;;;;;;;;;20.71;71.63;101561.13;7286095;19;152645;-54
2021/10/18 05:27:30;;;;;;;;;;;;;;;20.76;71.62;101546.16;7284087;19;153604;-54
2021/10/18 05:29:57;;;;;;;;;;;;;;;20.81;72.05;101549.78;7284999;19;151675;-54
2021/10/18 05:32:25;;;;;;;;;;;;;;;20.88;71.98;101549.44;7282002;19;153127;-54
2021/10/18 05:34:52;;;;;;;;;;;;;;;20.95;71.56;101549.06;7284361;19;153224;-55
2021/10/18 05:37:19;;;;;;;;;;;;;;;21.01;71.97;101545.09;7291008;19;151732;-55
2021/10/18 05:39:46;;;;;;;;;;;;;;;21.07;71.76;101536.31;7285182;19;153233;-54
2021/10/18 05:42:13;;;;;;;;;;;;;;;21.13;71.29;101542.72;7285964;19;152221;-55
2021/10/18 05:44:39;;;;;;;;;;;;;;;21.19;70.89;101533.13;7280394;19;153315;-54
2021/10/18 05:47:06;;;;;;;;;;;;;;;21.26;70.63;101526.00;7284286;19;152294;-54
2021/10/18 05:49:33;;;;;;;;;;;;;;;21.33;70.83;101547.28;7283220;19;152136;-54
2021/10/18 05:52:01;;;;;;;;;;;;;;;21.39;70.04;101551.72;7284798;19;153357;-55
2021/10/18 05:54:28;;;;;;;;;;;;;;;21.46;69.62;101555.00;7283915;19;153364;-54
2021/10/18 05:57:15;;;;;;;;;;;;;;;21.52;70.23;101557.47;7283373;19;152315;-55
2021/10/18 05:59:42;;;;;;;;;;;;;;;21.58;70.01;101558.22;7291074;19;153651;-54
2021/10/18 06:02:09;;;;;;;;;;;;;;;21.65;69.55;101558.69;7284650;19;151437;-55
2021/10/18 06:04:41;;;;;;;;;;;;;;;21.70;68.96;101556.66;7278771;19;153573;-54
2021/10/18 06:07:10;;;;;;;;;;;;;;;21.78;69.27;101548.69;7284484;19;154316;-54
2021/10/18 06:09:37;;;;;;;;;;;;;;;21.83;68.53;101531.72;7284487;19;151878;-54
2021/10/18 06:12:04;;;;;;;;;;;;;;;21.89;68.52;101553.03;7284294;19;152598;-54
2021/10/18 06:14:31;;;;;;;;;;;;;;;21.94;68.16;101542.56;7283622;19;153711;-54
2021/10/18 06:16:58;;;;;;;;;;;;;;;21.99;67.99;101542.47;7283860;19;151575;-54
2021/10/18 06:19:25;;;;;;;;;;;;;;;22.04;67.52;101545.22;7294620;19;153148;-54
2021/10/18 06:21:52;;;;;;;;;;;;;;;22.11;66.77;101551.31;7290992;19;152028;-54
2021/10/18 06:24:19;;;;;;;;;;;;;;;22.14;66.79;101549.88;7288171;19;153606;-54
2021/10/18 06:26:46;;;;;;;;;;;;;;;22.18;66.25;101550.94;7289930;19;153467;-54
2021/10/18 06:29:13;;;;;;;;;;;;;;;22.20;65.40;101534.59;7290345;19;152050;-54
2021/10/18 06:31:40;;;;;;;;;;;;;;;22.24;65.12;101534.81;7288648;19;154496;-54
2021/10/18 06:34:07;;;;;;;;;;;;;;;22.25;65.32;101528.03;7286610;19;153820;-54
2021/10/18 06:36:34;;;;;;;;;;;;;;;22.28;64.67;101521.78;7288848;19;151763;-54
2021/10/18 06:39:01;;;;;;;;;;;;;;;22.26;61.87;101521.28;7290064;19;153296;-53
2021/10/18 06:41:28;;;;;;;;;;;;;;;22.25;62.17;101514.81;7296990;19;154088;-54
2021/10/18 06:43:55;;;;;;;;;;;;;;;22.27;62.22;101531.38;7288850;19;153653;-54
2021/10/18 06:46:22;;;;;;;;;;;;;;;22.28;62.11;101525.44;7286625;19;153231;-53
2021/10/18 06:48:49;;;;;;;;;;;;;;;22.31;61.65;101505.09;7289928;19;152197;-53
2021/10/18 06:51:16;;;;;;;;;;;;;;;22.30;61.46;101502.63;7289893;19;152349;-53
2021/10/18 06:53:43;;;;;;;;;;;;;;;22.29;61.50;101504.59;7286737;19;154063;-54
2021/10/18 06:56:10;;;;;;;;;;;;;;;22.31;61.11;101504.28;7289085;19;152007;-54
2021/10/18 06:58:37;;;;;;;;;;;;;;;22.30;61.37;101491.34;7289105;19;153919;-53
2021/10/18 07:01:04;;;;;;;;;;;;;;;22.30;61.32;101499.81;7288890;19;154135;-53
2021/10/18 07:03:31;;;;;;;;;;;;;;;22.29;60.83;101504.59;7295037;19;152072;-53
2021/10/18 07:06:01;;;;;;;;;;;;;;;22.29;60.94;101492.50;7288731;19;154092;-53
2021/10/18 07:08:28;;;;;;;;;;;;;;;22.27;60.44;101492.78;7288833;19;152323;-53
2021/10/18 07:10:55;;;;;;;;;;;;;;;22.27;60.38;101487.16;7287832;19;152783;-53
2021/10/18 07:13:22;;;;;;;;;;;;;;;22.26;60.52;101491.13;7288219;19;153797;-53
2021/10/18 07:15:49;;;;;;;;;;;;;;;22.24;60.39;101493.41;7288707;19;151943;-53
2021/10/18 07:18:16;;;;;;;;;;;;;;;22.24;60.48;101493.41;7286622;19;153466;-53
2021/10/18 07:20:43;;;;;;;;;;;;;;;22.25;60.69;101497.06;7286916;19;154044;-52
2021/10/18 07:23:12;;;;;;;;;;;;;;;22.24;61.09;101490.59;7288526;19;152178;-53
2021/10/18 07:25:42;;;;;;;;;;;;;;;22.23;61.23;101493.72;7295339;19;152806;-53
2021/10/18 07:28:09;;;;;;;;;;;;;;;22.16;59.96;101502.56;7289374;19;151953;-54
2021/10/18 07:30:38;;;;;;;;;;;;;;;22.02;58.46;101484.78;7288755;19;153337;-53
2021/10/18 07:33:05;;;;;;;;;;;;;;;21.89;58.27;101479.88;7285210;19;153353;-53
2021/10/18 07:35:34;;;;;;;;;;;;;;;21.92;59.59;101477.28;7285943;19;152119;-53
2021/10/18 07:38:03;;;;;;;;;;;;;;;21.96;59.60;101485.97;7286351;19;152029;-53
2021/10/18 07:40:30;;;;;;;;;;;;;;;21.98;59.65;101480.91;7285294;19;153490;-53
2021/10/18 07:43:00;;;;;;;;;;;;;;;21.99;59.55;101479.72;7288465;19;151795;-53
2021/10/18 07:45:28;;;;;;;;;;;;;;;21.96;60.11;101481.19;7284011;19;153357;-53
2021/10/18 07:47:55;;;;;;;;;;;;;;;21.96;59.88;101478.38;7290571;19;153852;-53
2021/10/18 07:50:22;;;;;;;;;;;;;;;21.96;59.99;101471.91;7287078;19;154098;-53
2021/10/18 07:52:49;;;;;;;;;;;;;;;21.95;60.00;101467.44;7287232;19;152731;-53
2021/10/18 07:55:18;;;;;;;;;;;;;;;21.95;60.14;101458.97;7288025;19;151772;-53
2021/10/18 07:57:46;;;;;;;;;;;;;;;21.93;59.92;101453.69;7286064;19;152681;-53
2021/10/18 08:00:14;;;;;;;;;;;;;;;21.93;60.16;101478.16;7285760;19;153476;-53
2021/10/18 08:02:41;;;;;;;;;;;;;;;21.90;60.13;101475.91;7284510;19;152459;-53
2021/10/18 08:05:08;;;;;;;;;;;;;;;21.89;60.40;101477.06;7286067;19;152589;-53
2021/10/18 08:07:37;;;;;;;;;;;;;;;21.87;60.60;101474.56;7285696;19;153252;-53
2021/10/18 08:10:06;;;;;;;;;;;;;;;21.86;60.68;101480.47;7292908;19;151856;-53
2021/10/18 08:12:34;;;;;;;;;;;;;;;21.85;60.51;101493.69;7285735;19;153375;-53
2021/10/18 08:15:01;;;;;;;;;;;;;;;21.84;60.81;101502.47;7287566;19;151713;-55
2021/10/18 08:17:28;;;;;;;;;;;;;;;21.83;60.63;101509.22;7285771;19;152648;-53
2021/10/18 08:19:55;;;;;;;;;;;;;;;21.81;60.91;101506.72;7283320;19;153072;-53
2021/10/18 08:22:22;;;;;;;;;;;;;;;21.80;60.41;101505.06;7287960;19;152017;-53
2021/10/18 08:24:49;;;;;;;;;;;;;;;21.78;60.90;101510.13;7285890;19;153216;-54
2021/10/18 08:27:17;;;;;;;;;;;;;;;21.77;61.11;101514.09;7284090;19;152189;-54
2021/10/18 08:29:44;;;;;;;;;;;;;;;21.74;60.98;101509.06;7293619;19;151993;-53
2021/10/18 08:32:10;;;;;;;;;;;;;;;21.72;61.17;101512.19;7286729;19;153226;-53
2021/10/18 08:34:38;;;;;;;;;;;;;;;21.70;61.19;101508.84;7280692;19;152773;-54
2021/10/18 08:37:05;;;;;;;;;;;;;;;21.69;61.51;101520.38;7282914;19;152106;-54
2021/10/18 08:42:06;;;;;;;;;;;;;;;21.65;61.47;101505.25;7283008;19;151676;-53
2021/10/18 08:44:34;;;;;;;;;;;;;;;21.64;61.61;101498.81;7284062;19;153851;-57
2021/10/18 08:47:02;;;;;;;;;;;;;;;21.63;61.68;101504.72;7286609;19;153636;-54
2021/10/18 08:49:29;;;;;;;;;;;;;;;21.60;61.76;101497.72;7286587;19;151458;-57
2021/10/18 08:51:57;;;;;;;;;;;;;;;21.60;61.90;101494.09;7293804;19;153588;-53
2021/10/18 08:54:24;;;;;;;;;;;;;;;21.57;61.93;101483.44;7286791;19;151526;-53
2021/10/18 08:56:54;;;;;;;;;;;;;;;21.57;61.99;101489.06;7286922;19;153246;-53
2021/10/18 08:59:21;;;;;;;;;;;;;;;21.55;62.10;101472.50;7284731;19;154003;-55
2021/10/18 09:01:50;;;;;;;;;;;;;;;21.54;62.23;101472.78;7287300;19;152097;-54
2021/10/18 09:04:24;;;;;;;;;;;;;;;21.52;62.12;101478.72;7280524;19;153070;-53
2021/10/18 09:06:52;;;;;;;;;;;;;;;21.52;62.36;101470.28;7285287;19;154313;-54
2021/10/18 09:09:23;;;;;;;;;;;;;;;21.51;62.33;101467.78;7285835;19;151861;-54
2021/10/18 09:11:53;;;;;;;;;;;;;;;21.50;61.79;101461.31;7285133;19;153213;-53
2021/10/18 09:14:20;;;;;;;;;;;;;;;21.49;62.05;101462.44;7291195;19;153240;-54
2021/10/18 09:16:47;;;;;;;;;;;;;;;21.48;61.93;101452.38;7285515;19;153552;-53
2021/10/18 09:19:15;;;;;;;;;;;;;;;21.46;62.20;101437.75;7284596;19;153399;-53
2021/10/18 09:21:46;;;;;;;;;;;;;;;21.45;61.90;101427.66;7285687;19;151950;-53
2021/10/18 09:24:14;;;;;;;;;;;;;;;21.45;61.97;101424.84;7285274;19;152670;-54
2021/10/18 09:26:42;;;;;;;;;;;;;;;21.42;62.05;101433.88;7284629;19;153137;-53
2021/10/18 09:29:11;;;;;;;;;;;;;;;21.41;62.39;101432.19;7284793;19;152223;-53
2021/10/18 09:31:39;;;;;;;;;;;;;;;21.40;62.13;101424.06;7285226;19;151922;-54
2021/10/18 09:34:10;;;;;;;;;;;;;;;21.36;62.25;101414.56;7282287;19;153553;-53
2021/10/18 09:36:38;;;;;;;;;;;;;;;21.35;62.69;101405.28;7288844;19;151931;-53
2021/10/18 09:39:10;;;;;;;;;;;;;;;21.33;62.46;101407.59;7282176;19;153966;-53
2021/10/18 09:41:41;;;;;;;;;;;;;;;21.32;62.43;101411.53;7284961;19;151919;-53
2021/10/18 09:44:17;;;;;;;;;;;;;;;21.30;62.78;101411.00;7283502;19;153573;-54
2021/10/18 09:46:50;;;;;;;;;;;;;;;21.29;62.64;101421.41;7282964;19;154195;-54
2021/10/18 10:52:38;;;;;;;;;;;;;;;21.08;63.21;101413.50;7282202;19;152665;-59
2021/10/18 10:55:08;;;;;;;;;;;;;;;21.08;63.09;101407.88;7281806;19;153362;-53
2021/10/18 10:57:35;;;;;;;;;;;;;;;21.07;63.26;101412.69;7283292;19;152271;-53
2021/10/18 11:00:03;;;;;;;;;;;;;;;21.05;63.05;101406.53;7279797;19;153225;-53
2021/10/18 11:02:32;;;;;;;;;;;;;;;21.05;63.00;101414.13;7282567;19;153652;-54
2021/10/18 11:04:59;;;;;;;;;;;;;;;21.05;62.97;101412.16;7290726;19;151940;-54
2021/10/18 11:07:29;;;;;;;;;;;;;;;21.05;62.89;101409.34;7288516;19;154246;-53
2021/10/18 11:09:57;;;;;;;;;;;;;;;21.04;63.29;101424.50;7288998;19;151865;-54
2021/10/18 11:12:28;;;;;;;;;;;;;;;21.03;63.05;101422.84;7289822;19;152775;-53
2021/10/18 11:14:56;;;;;;;;;;;;;;;21.04;63.11;101409.63;7286762;19;153784;-54
2021/10/18 11:17:23;;;;;;;;;;;;;;;21.03;63.44;101405.16;7290148;19;151885;-54
2021/10/18 11:19:52;;;;;;;;;;;;;;;21.00;63.25;101398.16;7287324;19;153614;-53
2021/10/18 11:22:22;;;;;;;;;;;;;;;20.99;63.36;101404.91;7288631;19;153981;-53
2021/10/18 11:24:49;;;;;;;;;;;;;;;20.99;63.37;101407.72;7288235;19;151954;-53
2021/10/18 11:27:25;;;;;;;;;;;;;;;21.00;63.28;101422.59;7295463;19;153039;-53
2021/10/18 11:29:55;;;;;;;;;;;;;;;20.99;63.59;101404.91;7288168;19;153082;-54
2021/10/18 11:32:23;;;;;;;;;;;;;;;20.97;63.39;101401.59;7289063;19;151775;-54
2021/10/18 11:34:50;;;;;;;;;;;;;;;20.96;63.12;101388.66;7285130;19;154700;-53
2021/10/18 11:37:17;;;;;;;;;;;;;;;20.97;63.64;101392.31;7286753;19;152196;-53
2021/10/18 11:39:44;;;;;;;;;;;;;;;20.97;63.50;101383.88;7284855;19;153902;-53
2021/10/18 11:42:13;;;;;;;;;;;;;;;20.97;63.42;101387.53;7287848;19;154431;-53
2021/10/18 11:44:40;;;;;;;;;;;;;;;20.98;63.67;101385.56;7286353;19;152103;-54
2021/10/18 11:47:11;;;;;;;;;;;;;;;20.97;63.20;101376.31;7288951;19;152608;-54
2021/10/18 11:49:38;;;;;;;;;;;;;;;20.96;63.38;101385.03;7294545;19;153460;-54
2021/10/18 11:52:07;;;;;;;;;;;;;;;20.95;63.80;101397.38;7286875;19;153444;-55
2021/10/18 11:54:34;;;;;;;;;;;;;;;20.94;63.43;101388.13;7284662;19;153847;-53
2021/10/18 11:57:01;;;;;;;;;;;;;;;20.92;63.60;101387.59;7286320;19;152169;-53
2021/10/18 11:59:28;;;;;;;;;;;;;;;20.92;63.54;101387.59;7285699;19;152810;-54
2021/10/18 12:01:55;;;;;;;;;;;;;;;20.91;63.72;101391.53;7287438;19;153424;-54
2021/10/18 12:04:22;;;;;;;;;;;;;;;20.93;63.83;101375.22;7282913;19;151827;-53
2021/10/18 12:06:50;;;;;;;;;;;;;;;20.95;63.86;101378.56;7283919;19;153139;-54
2021/10/18 12:09:20;;;;;;;;;;;;;;;20.94;63.83;101374.06;7286518;19;153925;-54
2021/10/18 12:11:52;;;;;;;;;;;;;;;20.94;63.52;101359.22;7294064;19;152176;-56
2021/10/18 12:14:19;;;;;;;;;;;;;;;20.91;63.53;101366.25;7286660;19;154127;-54
2021/10/18 12:16:46;;;;;;;;;;;;;;;20.92;63.71;101361.47;7283587;19;152140;-54
2021/10/18 12:19:13;;;;;;;;;;;;;;;20.91;63.83;101373.84;7285708;19;153176;-53
2021/10/18 12:21:40;;;;;;;;;;;;;;;20.91;64.02;101359.81;7284413;19;153244;-53
2021/10/18 12:24:08;;;;;;;;;;;;;;;20.90;63.78;101352.50;7287755;19;152090;-53
2021/10/18 12:26:38;;;;;;;;;;;;;;;20.91;63.78;101340.13;7282938;19;152630;-53
2021/10/18 12:29:08;;;;;;;;;;;;;;;20.91;63.57;101343.78;7286562;19;153427;-53
2021/10/18 12:31:37;;;;;;;;;;;;;;;20.90;63.73;101358.13;7295287;19;152350;-54
2021/10/18 12:34:05;;;;;;;;;;;;;;;20.87;64.23;101359.56;7284094;19;154152;-54
2021/10/18 12:36:44;;;;;;;;;;;;;;;20.88;64.34;101363.22;7287190;19;151677;-54
2021/10/18 12:39:30;;;;;;;;;;;;;;;20.87;64.17;101359.56;7283072;19;153507;-53
2021/10/18 12:41:57;;;;;;;;;;;;;;;20.86;64.22;101366.31;7285873;19;153261;-53
2021/10/18 12:44:27;;;;;;;;;;;;;;;20.85;64.53;101359.88;7286164;19;152571;-53
2021/10/18 12:46:54;;;;;;;;;;;;;;;20.84;63.89;101355.41;7284210;19;153497;-53
2021/10/18 12:49:27;;;;;;;;;;;;;;;20.83;64.10;101345.31;7283426;19;154127;-53
2021/10/18 12:51:54;;;;;;;;;;;;;;;20.84;63.93;101344.16;7286551;19;152108;-53
2021/10/18 12:54:24;;;;;;;;;;;;;;;20.83;64.00;101341.66;7293915;19;152876;-54
2021/10/18 12:56:54;;;;;;;;;;;;;;;20.84;64.16;101332.09;7285485;19;151822;-53
2021/10/18 12:59:21;;;;;;;;;;;;;;;20.84;64.46;101332.09;7287078;19;153180;-54
2021/10/18 13:02:08;;;;;;;;;;;;;;;20.83;64.16;101334.06;7284509;19;154238;-53
2021/10/18 13:04:35;;;;;;;;;;;;;;;20.83;64.30;101328.44;7282514;19;152662;-54
2021/10/18 13:07:02;;;;;;;;;;;;;;;20.80;64.45;101326.22;7284351;19;152985;-54
2021/10/18 13:09:29;;;;;;;;;;;;;;;20.82;64.29;101323.97;7282469;19;153833;-54
2021/10/18 13:11:56;;;;;;;;;;;;;;;20.81;64.74;101325.09;7287175;19;152095;-54
2021/10/18 13:14:25;;;;;;;;;;;;;;;20.79;64.64;101327.38;7286409;19;152875;-53
2021/10/18 13:16:52;;;;;;;;;;;;;;;20.79;64.71;101318.97;7292808;19;155030;-54
2021/10/18 13:19:19;;;;;;;;;;;;;;;20.79;64.35;101313.34;7286135;19;153553;-53
2021/10/18 13:21:46;;;;;;;;;;;;;;;20.77;64.78;101311.97;7282861;19;154634;-54
2021/10/18 13:24:13;;;;;;;;;;;;;;;20.76;65.05;101327.13;7285773;19;151953;-53
2021/10/18 13:26:40;;;;;;;;;;;;;;;20.77;65.65;101326.84;7283579;19;152441;-54
2021/10/18 13:29:07;;;;;;;;;;;;;;;20.80;65.23;101308.56;7282464;19;154033;-53
2021/10/18 13:31:34;;;;;;;;;;;;;;;20.84;65.04;101295.59;7284644;19;151865;-54
2021/10/18 13:34:03;;;;;;;;;;;;;;;20.86;65.29;101294.13;7284147;19;152806;-54
2021/10/18 13:36:30;;;;;;;;;;;;;;;20.91;65.25;101300.81;7284026;19;154057;-53